North Salem, New York
Current Conditions -  °F | °C
As of 6:53 AM on Thursday 23 Oct 2014 (Local Time) from KDXR Reporting Station
Light Rain Light Rain  
Wind Chill: 46°   Ceiling: 1400
Heat Index: 49°   Visibility: 6mi
Dew Point: 44°   Wind: 7mph
Humidity: 83%   Direction: 330°NNW
Pressure: 29.71"   Gusts: NA
Location:  41.33°N, 73.57°W
Report Text: KDXR 231053Z AUTO 33006KT 6SM -RA OVC014 09/07 A2971 RMK AO2 SLP060 P0003 T00940067
Loading
Personal Weather Stations






























Interactive Weather Map
Tropical Storm Tracking
New forecast layout! Learn more

10-Day Weather Forecast

Advertisements
Track Severe Weather on mobile